createdAt,value
2022-08-07T00:01:44.520Z,21.18
2022-08-07T00:04:06.025Z,21.05
2022-08-07T00:06:33.876Z,20.96
2022-08-07T00:09:16.386Z,20.85
2022-08-07T00:11:54.097Z,20.85
2022-08-07T00:14:25.433Z,20.82
2022-08-07T00:16:58.333Z,21.05
2022-08-07T00:19:25.917Z,20.86
2022-08-07T00:21:56.126Z,20.99
2022-08-07T00:24:24.390Z,20.98
2022-08-07T00:26:58.864Z,20.95
2022-08-07T00:29:32.650Z,20.97
2022-08-07T00:31:59.697Z,20.98
2022-08-07T00:34:27.071Z,20.84
2022-08-07T00:36:56.355Z,20.96
2022-08-07T00:39:23.089Z,21.04
2022-08-07T00:42:02.580Z,21.04
2022-08-07T00:44:33.174Z,20.99
2022-08-07T00:47:03.669Z,21.01
2022-08-07T00:50:21.132Z,20.73
2022-08-07T00:52:20.316Z,20.84
2022-08-07T00:54:53.833Z,20.88
2022-08-07T00:57:23.052Z,20.83
2022-08-07T00:59:52.826Z,20.78
2022-08-07T01:02:28.729Z,20.72
2022-08-07T01:04:59.219Z,20.66
2022-08-07T01:07:28.241Z,20.74
2022-08-07T01:10:05.862Z,20.62
2022-08-07T01:12:44.785Z,20.58
2022-08-07T01:15:20.767Z,20.51
2022-08-07T01:17:50.165Z,20.53
2022-08-07T01:20:17.683Z,20.51
2022-08-07T01:22:54.354Z,20.50
2022-08-07T01:25:53.564Z,20.51
2022-08-07T01:28:21.768Z,20.50
2022-08-07T01:30:52.580Z,20.58
2022-08-07T01:33:22.621Z,20.65
2022-08-07T01:35:54.184Z,20.66
2022-08-07T01:38:32.679Z,20.70
2022-08-07T01:41:09.451Z,20.68
2022-08-07T01:43:38.500Z,20.74
2022-08-07T01:46:08.247Z,20.67
2022-08-07T01:48:46.779Z,20.66
2022-08-07T01:52:01.153Z,20.66
2022-08-07T01:54:19.297Z,20.54
2022-08-07T01:57:06.845Z,20.43
2022-08-07T01:59:56.697Z,20.38
2022-08-07T02:03:11.440Z,20.35
2022-08-07T02:05:42.806Z,20.29
2022-08-07T02:08:18.050Z,20.37
2022-08-07T02:10:54.860Z,20.38
2022-08-07T02:13:56.617Z,20.39
2022-08-07T02:16:12.142Z,20.39
2022-08-07T02:18:46.871Z,20.36
2022-08-07T02:21:16.373Z,20.35
2022-08-07T02:23:44.925Z,20.33
2022-08-07T02:26:32.676Z,20.39
2022-08-07T02:29:00.283Z,20.29
2022-08-07T02:31:29.454Z,20.42
2022-08-07T02:34:03.636Z,20.38
2022-08-07T02:36:43.749Z,20.37
2022-08-07T02:39:17.214Z,20.41
2022-08-07T02:42:03.630Z,20.28
2022-08-07T02:44:42.248Z,20.26
2022-08-07T02:47:29.177Z,20.15
2022-08-07T02:50:11.548Z,20.07
2022-08-07T02:52:44.069Z,20.06
2022-08-07T02:56:02.121Z,19.93
2022-08-07T02:58:21.750Z,19.75
2022-08-07T03:00:51.648Z,19.91
2022-08-07T03:03:22.694Z,19.91
2022-08-07T03:05:54.062Z,19.79
2022-08-07T03:08:26.996Z,19.85
2022-08-07T03:10:58.010Z,19.92
2022-08-07T03:13:39.312Z,19.91
2022-08-07T03:16:18.355Z,19.90
2022-08-07T03:18:50.623Z,19.91
2022-08-07T03:21:19.245Z,19.93
2022-08-07T03:24:21.192Z,19.81
2022-08-07T03:26:43.066Z,19.85
2022-08-07T03:29:20.826Z,19.82
2022-08-07T03:31:49.889Z,19.91
2022-08-07T03:34:22.553Z,19.95
2022-08-07T03:36:57.233Z,19.86
2022-08-07T03:39:46.474Z,19.93
2022-08-07T03:42:13.363Z,19.88
2022-08-07T03:44:41.780Z,19.91
2022-08-07T03:47:13.330Z,19.72
2022-08-07T03:49:47.681Z,19.78
2022-08-07T03:52:22.867Z,19.79
2022-08-07T03:55:06.099Z,19.72
2022-08-07T03:58:35.250Z,19.76
2022-08-07T04:00:30.586Z,19.86
2022-08-07T04:03:03.851Z,19.81
2022-08-07T04:05:40.783Z,19.77
2022-08-07T04:08:16.186Z,19.69
2022-08-07T04:10:54.741Z,19.77
2022-08-07T04:14:09.369Z,19.77
2022-08-07T04:16:31.311Z,19.56
2022-08-07T04:19:04.399Z,19.71
2022-08-07T04:21:59.629Z,19.72
2022-08-07T04:24:39.233Z,19.60
2022-08-07T04:27:20.713Z,19.77
2022-08-07T04:30:01.963Z,19.85
2022-08-07T04:32:58.098Z,19.75
2022-08-07T04:35:27.298Z,19.75
2022-08-07T04:38:03.951Z,19.86
2022-08-07T04:40:35.872Z,19.93
2022-08-07T04:43:11.022Z,19.96
2022-08-07T04:46:01.179Z,19.80
2022-08-07T04:49:14.959Z,19.78
2022-08-07T04:52:01.744Z,19.98
2022-08-07T04:54:50.590Z,19.86
2022-08-07T04:58:09.904Z,19.88
2022-08-07T05:00:50.008Z,19.86
2022-08-07T05:04:06.832Z,19.93
2022-08-07T05:06:56.084Z,19.91
2022-08-07T05:09:46.303Z,20.03
2022-08-07T05:12:26.729Z,20.18
2022-08-07T05:15:04.173Z,20.09
2022-08-07T05:17:50.937Z,20.16
2022-08-07T05:20:24.977Z,20.17
2022-08-07T05:22:57.097Z,20.08
2022-08-07T05:26:04.140Z,20.07
2022-08-07T05:28:22.553Z,20.16
2022-08-07T05:30:53.241Z,20.17
2022-08-07T05:33:21.661Z,20.15
2022-08-07T05:35:50.909Z,20.18
2022-08-07T05:38:59.873Z,20.28
2022-08-07T05:41:14.504Z,20.43
2022-08-07T05:44:08.354Z,20.28
2022-08-07T05:46:36.449Z,20.19
2022-08-07T05:49:11.814Z,20.13
2022-08-07T05:51:42.519Z,20.15
2022-08-07T05:54:30.267Z,20.18
2022-08-07T05:56:58.701Z,20.17
2022-08-07T05:59:27.393Z,20.25
2022-08-07T06:02:00.279Z,20.35
2022-08-07T06:04:30.196Z,20.36
2022-08-07T06:07:03.812Z,20.34
2022-08-07T06:09:44.965Z,20.41
2022-08-07T06:12:31.868Z,20.41
2022-08-07T06:15:05.773Z,20.23
2022-08-07T06:17:38.063Z,19.91
2022-08-07T06:20:12.320Z,20.23
2022-08-07T06:23:04.085Z,20.24
2022-08-07T06:25:54.504Z,20.21
2022-08-07T06:28:27.211Z,20.34
2022-08-07T06:30:56.023Z,20.31
2022-08-07T06:33:23.390Z,20.31
2022-08-07T06:36:12.296Z,20.41
2022-08-07T06:38:58.835Z,20.45
2022-08-07T06:42:01.896Z,20.46
2022-08-07T06:44:51.740Z,20.41
2022-08-07T06:47:21.112Z,20.51
2022-08-07T06:49:51.503Z,20.62
2022-08-07T06:52:36.063Z,20.57
2022-08-07T06:55:32.757Z,20.47
2022-08-07T06:58:10.195Z,20.54
2022-08-07T07:00:46.282Z,20.74
2022-08-07T07:03:14.347Z,20.87
2022-08-07T07:06:05.156Z,20.88
2022-08-07T07:08:34.097Z,20.86
2022-08-07T07:11:13.303Z,20.94
2022-08-07T07:13:58.600Z,20.95
2022-08-07T07:16:31.330Z,20.90
2022-08-07T07:19:34.042Z,20.92
2022-08-07T07:22:04.622Z,21.01
2022-08-07T07:24:42.993Z,21.07
2022-08-07T07:27:17.031Z,20.98
2022-08-07T07:30:08.738Z,20.95
2022-08-07T07:32:40.789Z,21.09
2022-08-07T07:35:11.218Z,21.20
2022-08-07T07:37:44.377Z,21.16
2022-08-07T07:40:16.217Z,21.16
2022-08-07T07:42:47.209Z,21.17
2022-08-07T07:45:19.578Z,21.27
2022-08-07T07:47:53.631Z,21.32
2022-08-07T07:50:36.533Z,21.43
2022-08-07T07:53:20.578Z,21.52
2022-08-07T07:56:00.428Z,21.52
2022-08-07T07:58:40.229Z,21.59
2022-08-07T08:02:02.085Z,21.68
2022-08-07T08:04:10.199Z,21.70
2022-08-07T08:06:40.661Z,21.74
2022-08-07T08:09:22.993Z,21.74
2022-08-07T08:12:01.833Z,21.79
2022-08-07T08:14:36.650Z,21.86
2022-08-07T08:17:32.382Z,21.92
2022-08-07T08:20:18.573Z,22.05
2022-08-07T08:23:10.662Z,22.11
2022-08-07T08:25:58.233Z,22.17
2022-08-07T08:28:38.552Z,22.10
2022-08-07T08:31:14.832Z,22.16
2022-08-07T08:33:49.130Z,22.22
2022-08-07T08:36:25.461Z,22.20
2022-08-07T08:38:54.527Z,22.25
2022-08-07T08:41:56.894Z,22.19
2022-08-07T08:44:29.158Z,22.08
2022-08-07T08:47:10.035Z,22.24
2022-08-07T08:50:05.168Z,22.23
2022-08-07T08:52:40.789Z,22.28
2022-08-07T08:55:54.414Z,22.27
2022-08-07T08:58:28.637Z,22.30
2022-08-07T09:01:15.216Z,22.33
2022-08-07T09:03:53.054Z,22.37
2022-08-07T09:06:27.327Z,22.39
2022-08-07T09:09:40.779Z,22.41
2022-08-07T09:12:53.133Z,22.41
2022-08-07T09:16:23.338Z,22.54
2022-08-07T09:18:53.179Z,22.48
2022-08-07T09:21:33.838Z,22.60
2022-08-07T09:30:02.304Z,22.57
2022-08-07T09:31:39.975Z,22.67
2022-08-07T09:34:26.178Z,22.73
2022-08-07T09:36:59.871Z,22.84
2022-08-07T09:40:04.878Z,22.81
2022-08-07T09:43:10.962Z,22.93
2022-08-07T09:47:51.179Z,22.94
2022-08-07T09:50:00.665Z,22.91
2022-08-07T09:56:37.262Z,23.09
2022-08-07T09:59:17.644Z,23.07
2022-08-07T10:02:19.123Z,22.96
2022-08-07T10:05:59.461Z,22.98
2022-08-07T10:08:56.198Z,22.95
2022-08-07T10:12:02.505Z,23.06
2022-08-07T10:14:31.337Z,23.00
2022-08-07T10:17:24.052Z,23.03
2022-08-07T10:20:13.004Z,23.13
2022-08-07T10:23:07.536Z,23.12
2022-08-07T10:26:13.739Z,23.07
2022-08-07T10:29:06.316Z,23.20
2022-08-07T10:31:46.058Z,23.22
2022-08-07T10:34:40.193Z,23.17
2022-08-07T10:37:12.323Z,23.22
2022-08-07T10:39:41.959Z,23.14
2022-08-07T10:42:47.409Z,23.22
2022-08-07T10:45:45.366Z,23.22
2022-08-07T10:48:48.665Z,23.26
2022-08-07T10:51:57.480Z,23.40
2022-08-07T10:54:15.505Z,23.42
2022-08-07T10:57:04.477Z,23.43
2022-08-07T10:59:48.378Z,23.45
2022-08-07T11:02:34.167Z,23.42
2022-08-07T11:05:24.089Z,23.46
2022-08-07T11:08:30.467Z,23.51
2022-08-07T11:11:09.559Z,23.56
2022-08-07T11:14:44.914Z,23.62
2022-08-07T11:16:41.123Z,23.59
2022-08-07T11:19:21.803Z,23.64
2022-08-07T11:22:03.038Z,23.70
2022-08-07T11:24:53.599Z,23.64
2022-08-07T11:28:03.246Z,23.62
2022-08-07T11:30:41.662Z,23.74
2022-08-07T11:33:19.408Z,23.80
2022-08-07T11:36:25.484Z,23.88
2022-08-07T11:40:00.049Z,23.81
2022-08-07T11:42:44.937Z,23.89
2022-08-07T11:45:23.634Z,23.95
2022-08-07T11:47:59.582Z,23.88
2022-08-07T11:51:00.157Z,23.96
2022-08-07T11:53:37.429Z,23.98
2022-08-07T11:56:26.348Z,23.96
2022-08-07T11:59:05.493Z,24.00
2022-08-07T12:02:30.628Z,23.98
2022-08-07T12:05:28.587Z,24.03
2022-08-07T12:08:25.976Z,24.08
2022-08-07T12:11:20.998Z,24.05
2022-08-07T12:13:52.075Z,24.13
2022-08-07T12:16:30.270Z,24.19
2022-08-07T12:19:35.655Z,24.18
2022-08-07T12:22:58.569Z,24.25
2022-08-07T12:26:03.423Z,24.37
2022-08-07T12:28:59.303Z,24.32
2022-08-07T12:36:05.630Z,24.31
2022-08-07T12:38:42.750Z,24.44
2022-08-07T12:41:14.656Z,24.48
2022-08-07T12:44:03.769Z,24.48
2022-08-07T12:46:48.739Z,24.53
2022-08-07T12:50:04.672Z,24.54
2022-08-07T12:52:59.447Z,24.55
2022-08-07T12:56:10.043Z,24.57
2022-08-07T12:58:40.015Z,24.66
2022-08-07T13:01:32.616Z,24.67
2022-08-07T13:04:34.018Z,24.66
2022-08-07T13:08:14.465Z,24.69
2022-08-07T13:10:51.427Z,24.74
2022-08-07T13:13:58.281Z,24.73
2022-08-07T13:16:25.155Z,24.78
2022-08-07T13:19:21.902Z,24.71
2022-08-07T13:22:26.881Z,24.73
2022-08-07T13:24:59.157Z,24.82
2022-08-07T13:28:13.701Z,24.86
2022-08-07T13:30:39.846Z,24.94
2022-08-07T13:34:29.735Z,24.95
2022-08-07T13:36:21.167Z,24.91
2022-08-07T13:39:01.250Z,24.95
2022-08-07T13:41:41.651Z,24.92
2022-08-07T13:44:13.123Z,24.98
2022-08-07T13:46:49.538Z,25.04
2022-08-07T13:50:33.460Z,25.08
2022-08-07T13:52:30.669Z,25.15
2022-08-07T13:59:27.235Z,25.16
2022-08-07T14:02:08.433Z,25.19
2022-08-07T14:04:49.592Z,25.23
2022-08-07T14:12:11.318Z,25.24
2022-08-07T14:14:43.529Z,25.22
2022-08-07T14:17:32.366Z,25.29
2022-08-07T14:20:40.914Z,25.25
2022-08-07T14:23:18.017Z,25.28
2022-08-07T14:26:30.376Z,25.30
2022-08-07T14:29:06.021Z,25.36
2022-08-07T14:31:56.091Z,25.36
2022-08-07T14:50:06.042Z,25.54
2022-08-07T15:00:47.807Z,25.68
2022-08-07T15:03:52.986Z,25.61
2022-08-07T15:06:25.144Z,25.69
2022-08-07T15:08:54.922Z,25.71
2022-08-07T15:11:48.851Z,25.75
2022-08-07T15:14:21.359Z,25.70
2022-08-07T15:16:54.960Z,25.72
2022-08-07T15:20:31.381Z,25.77
2022-08-07T15:25:04.082Z,25.68
2022-08-07T15:26:28.756Z,25.81
2022-08-07T15:30:03.602Z,25.86
2022-08-07T15:32:01.696Z,25.91
2022-08-07T15:34:37.849Z,25.79
2022-08-07T15:37:27.774Z,25.81
2022-08-07T15:39:58.343Z,25.77
2022-08-07T15:42:42.420Z,25.73
2022-08-07T15:45:22.477Z,25.82
2022-08-07T15:49:03.484Z,25.73
2022-08-07T15:54:15.606Z,25.83
2022-08-07T15:56:42.650Z,25.83
2022-08-07T15:59:16.264Z,25.84
2022-08-07T16:02:01.968Z,25.78
2022-08-07T16:04:31.593Z,25.80
2022-08-07T16:08:32.814Z,25.74
2022-08-07T16:10:14.851Z,25.73
2022-08-07T16:13:04.700Z,25.76
2022-08-07T16:15:57.676Z,25.69
2022-08-07T16:18:50.808Z,25.65
2022-08-07T16:22:01.794Z,25.53
2022-08-07T16:24:37.137Z,25.57
2022-08-07T16:27:24.547Z,25.58
2022-08-07T16:30:31.226Z,25.58
2022-08-07T16:34:02.282Z,25.62
2022-08-07T16:36:20.010Z,25.52
2022-08-07T16:39:14.825Z,25.52
2022-08-07T16:42:12.588Z,25.51
2022-08-07T16:46:20.959Z,25.61
2022-08-07T16:47:56.907Z,25.64
2022-08-07T16:50:38.878Z,25.66
2022-08-07T16:54:02.639Z,25.69
2022-08-07T16:56:26.200Z,25.62
2022-08-07T16:59:58.063Z,25.52
2022-08-07T17:27:00.471Z,25.59
2022-08-07T17:30:13.938Z,25.52
2022-08-07T17:34:08.678Z,25.46
2022-08-07T17:36:13.677Z,25.54
2022-08-07T17:38:57.080Z,25.57
2022-08-07T17:42:02.257Z,25.54
2022-08-07T17:44:43.909Z,25.58
2022-08-07T17:47:54.034Z,25.48
2022-08-07T17:52:00.861Z,25.47
2022-08-07T17:58:48.242Z,25.51
2022-08-07T18:01:58.109Z,25.49
2022-08-07T18:04:36.794Z,25.53
2022-08-07T18:07:20.606Z,25.54
2022-08-07T18:10:07.516Z,25.51
2022-08-07T18:13:16.457Z,25.43
2022-08-07T18:16:08.144Z,25.39
2022-08-07T18:21:02.565Z,25.45
2022-08-07T18:22:00.545Z,25.49
2022-08-07T18:24:36.047Z,25.52
2022-08-07T18:27:20.940Z,25.43
2022-08-07T18:30:06.866Z,25.49
2022-08-07T18:33:15.175Z,25.39
2022-08-07T18:36:06.040Z,25.37
2022-08-07T18:40:07.321Z,25.27
2022-08-07T18:42:12.957Z,25.33
2022-08-07T18:45:39.816Z,25.29
2022-08-07T18:50:05.244Z,25.28
2022-08-07T18:52:34.656Z,25.24
2022-08-07T18:55:42.501Z,25.18
2022-08-07T18:58:15.046Z,25.13
2022-08-07T19:00:54.423Z,25.01
2022-08-07T19:03:37.885Z,24.97
2022-08-07T19:06:49.253Z,24.76
2022-08-07T19:09:55.857Z,24.73
2022-08-07T19:12:18.915Z,24.78
2022-08-07T19:15:01.544Z,24.65
2022-08-07T19:18:11.518Z,24.56
2022-08-07T19:21:44.298Z,24.48
2022-08-07T19:24:30.476Z,24.38
2022-08-07T19:28:58.071Z,24.47
2022-08-07T19:30:56.025Z,24.39
2022-08-07T19:32:46.186Z,24.34
2022-08-07T19:35:22.302Z,24.25
2022-08-07T19:37:57.751Z,24.25
2022-08-07T19:40:33.401Z,24.23
2022-08-07T19:43:12.816Z,24.13
2022-08-07T19:46:06.016Z,24.22
2022-08-07T19:48:42.920Z,24.15
2022-08-07T19:51:20.237Z,24.14
2022-08-07T19:54:33.036Z,24.02
2022-08-07T19:57:51.991Z,24.00
2022-08-07T19:59:40.575Z,23.96
2022-08-07T20:02:19.062Z,23.90
2022-08-07T20:04:49.018Z,23.88
2022-08-07T20:07:23.683Z,23.84
2022-08-07T20:10:36.070Z,23.78
2022-08-07T20:12:43.083Z,23.80
2022-08-07T20:15:19.059Z,23.73
2022-08-07T20:18:01.383Z,23.76
2022-08-07T20:20:32.001Z,23.69
2022-08-07T20:23:23.107Z,23.63
2022-08-07T20:25:53.225Z,23.23
2022-08-07T20:28:20.782Z,23.52
2022-08-07T20:30:58.268Z,23.55
2022-08-07T20:33:37.803Z,23.57
2022-08-07T20:36:07.080Z,23.49
2022-08-07T20:38:34.690Z,23.44
2022-08-07T20:41:03.896Z,23.37
2022-08-07T20:43:32.963Z,23.36
2022-08-07T20:46:27.102Z,23.35
2022-08-07T20:49:55.185Z,23.39
2022-08-07T20:51:40.401Z,23.34
2022-08-07T20:54:30.095Z,23.38
2022-08-07T20:57:04.777Z,23.26
2022-08-07T21:00:07.319Z,22.92
2022-08-07T21:02:40.028Z,23.22
2022-08-07T21:05:16.240Z,23.09
2022-08-07T21:07:49.509Z,23.13
2022-08-07T21:10:29.785Z,23.04
2022-08-07T21:13:00.799Z,23.02
2022-08-07T21:15:58.592Z,22.96
2022-08-07T21:18:28.061Z,22.56
2022-08-07T21:20:56.627Z,22.92
2022-08-07T21:23:49.455Z,22.74
2022-08-07T21:26:43.796Z,22.73
2022-08-07T21:29:30.803Z,22.73
2022-08-07T21:32:47.734Z,22.61
2022-08-07T21:35:18.502Z,22.64
2022-08-07T21:38:44.156Z,22.58
2022-08-07T21:41:38.238Z,22.59
2022-08-07T21:44:32.397Z,22.59
2022-08-07T21:47:17.415Z,22.60
2022-08-07T21:50:03.147Z,22.58
2022-08-07T21:52:54.526Z,22.41
2022-08-07T21:55:29.755Z,22.54
2022-08-07T21:58:08.317Z,22.56
2022-08-07T22:00:40.875Z,22.50
2022-08-07T22:03:16.566Z,22.39
2022-08-07T22:05:52.110Z,22.39
2022-08-07T22:08:22.073Z,22.41
2022-08-07T22:10:54.874Z,22.34
2022-08-07T22:13:50.389Z,22.33
2022-08-07T22:16:44.595Z,22.26
2022-08-07T22:19:17.891Z,22.15
2022-08-07T22:22:05.368Z,22.22
2022-08-07T22:25:11.153Z,22.16
2022-08-07T22:28:07.390Z,22.22
2022-08-07T22:30:52.940Z,22.10
2022-08-07T22:33:53.600Z,22.09
2022-08-07T22:36:35.894Z,21.89
2022-08-07T22:39:23.440Z,22.07
2022-08-07T22:42:03.599Z,22.00
2022-08-07T22:44:58.373Z,22.05
2022-08-07T22:47:56.978Z,21.77
2022-08-07T22:50:52.019Z,21.67
2022-08-07T22:54:05.519Z,21.90
2022-08-07T22:56:34.411Z,21.83
2022-08-07T22:59:01.742Z,21.87
2022-08-07T23:01:49.549Z,21.78
2022-08-07T23:04:56.807Z,21.72
2022-08-07T23:07:58.150Z,21.51
2022-08-07T23:10:41.262Z,21.61
2022-08-07T23:13:29.305Z,21.72
2022-08-07T23:16:46.841Z,21.50
2022-08-07T23:19:51.147Z,21.46
2022-08-07T23:22:45.141Z,21.46
2022-08-07T23:25:30.745Z,21.16
2022-08-07T23:28:22.947Z,21.45
2022-08-07T23:31:42.654Z,21.25
2022-08-07T23:34:41.136Z,21.26
2022-08-07T23:37:22.965Z,21.38
2022-08-07T23:40:23.952Z,21.28
2022-08-07T23:43:17.076Z,21.20
2022-08-07T23:46:03.481Z,20.96
2022-08-07T23:48:56.249Z,21.10
2022-08-07T23:52:57.891Z,21.34
2022-08-07T23:54:43.816Z,21.31
2022-08-07T23:57:20.429Z,21.38
